sensor_id;sensor_type;location;lat;lon;timestamp;pressure;altitude;pressure_sealevel;temperature;humidity
64066;BME280;50318;54.760;9.408;2022-10-31T00:00:28;101402.16;;;17.01;69.05
64066;BME280;50318;54.760;9.408;2022-10-31T00:02:54;101403.41;;;17.00;68.70
64066;BME280;50318;54.760;9.408;2022-10-31T00:05:22;101408.38;;;16.96;68.78
64066;BME280;50318;54.760;9.408;2022-10-31T00:07:52;101411.63;;;16.94;69.29
64066;BME280;50318;54.760;9.408;2022-10-31T00:10:18;101418.41;;;16.93;69.15
64066;BME280;50318;54.760;9.408;2022-10-31T00:12:44;101411.81;;;16.91;69.58
64066;BME280;50318;54.760;9.408;2022-10-31T00:15:09;101415.06;;;16.89;69.35
64066;BME280;50318;54.760;9.408;2022-10-31T00:17:35;101415.75;;;16.84;69.59
64066;BME280;50318;54.760;9.408;2022-10-31T00:20:02;101422.31;;;16.86;70.07
64066;BME280;50318;54.760;9.408;2022-10-31T00:22:28;101430.16;;;16.88;70.43
64066;BME280;50318;54.760;9.408;2022-10-31T00:24:54;101428.63;;;16.87;70.35
64066;BME280;50318;54.760;9.408;2022-10-31T00:27:20;101431.69;;;16.89;70.12
64066;BME280;50318;54.760;9.408;2022-10-31T00:29:46;101429.22;;;16.91;69.85
64066;BME280;50318;54.760;9.408;2022-10-31T00:32:12;101427.09;;;16.86;69.79
64066;BME280;50318;54.760;9.408;2022-10-31T00:34:37;101429.22;;;16.91;69.71
64066;BME280;50318;54.760;9.408;2022-10-31T00:37:03;101431.13;;;16.85;69.76
64066;BME280;50318;54.760;9.408;2022-10-31T00:39:29;101437.25;;;16.89;70.34
64066;BME280;50318;54.760;9.408;2022-10-31T00:41:55;101445.84;;;16.91;70.85
64066;BME280;50318;54.760;9.408;2022-10-31T00:44:20;101444.88;;;16.94;70.97
64066;BME280;50318;54.760;9.408;2022-10-31T00:46:46;101444.69;;;16.98;70.84
64066;BME280;50318;54.760;9.408;2022-10-31T00:49:12;101438.38;;;16.97;70.78
64066;BME280;50318;54.760;9.408;2022-10-31T00:51:38;101430.00;;;17.06;70.99
64066;BME280;50318;54.760;9.408;2022-10-31T00:54:03;101438.13;;;17.10;70.65
64066;BME280;50318;54.760;9.408;2022-10-31T00:56:29;101439.16;;;17.12;70.49
64066;BME280;50318;54.760;9.408;2022-10-31T00:58:55;101440.97;;;17.15;70.39
64066;BME280;50318;54.760;9.408;2022-10-31T01:01:21;101453.13;;;17.18;69.84
64066;BME280;50318;54.760;9.408;2022-10-31T01:03:48;101464.50;;;17.20;69.97
64066;BME280;50318;54.760;9.408;2022-10-31T01:06:14;101452.34;;;17.17;70.71
64066;BME280;50318;54.760;9.408;2022-10-31T01:08:40;101440.97;;;17.15;70.39
64066;BME280;50318;54.760;9.408;2022-10-31T01:11:11;101454.84;;;17.30;70.51
64066;BME280;50318;54.760;9.408;2022-10-31T01:13:39;101456.94;;;17.35;70.69
64066;BME280;50318;54.760;9.408;2022-10-31T01:16:07;101449.97;;;17.40;70.87
64066;BME280;50318;54.760;9.408;2022-10-31T01:18:35;101438.31;;;17.36;70.54
64066;BME280;50318;54.760;9.408;2022-10-31T01:21:07;101445.28;;;17.46;70.17
64066;BME280;50318;54.760;9.408;2022-10-31T01:23:34;101449.09;;;17.48;70.37
64066;BME280;50318;54.760;9.408;2022-10-31T01:28:26;101451.22;;;17.54;70.18
64066;BME280;50318;54.760;9.408;2022-10-31T01:30:51;101453.22;;;17.53;69.77
64066;BME280;50318;54.760;9.408;2022-10-31T01:33:17;101455.22;;;17.53;69.67
64066;BME280;50318;54.760;9.408;2022-10-31T01:35:43;101459.06;;;17.55;69.95
64066;BME280;50318;54.760;9.408;2022-10-31T01:38:08;101468.63;;;17.54;69.85
64066;BME280;50318;54.760;9.408;2022-10-31T01:40:34;101468.63;;;17.54;69.78
64066;BME280;50318;54.760;9.408;2022-10-31T01:42:59;101468.13;;;17.56;70.09
64066;BME280;50318;54.760;9.408;2022-10-31T01:45:25;101468.91;;;17.56;70.45
64066;BME280;50318;54.760;9.408;2022-10-31T01:47:51;101460.38;;;17.60;70.00
64066;BME280;50318;54.760;9.408;2022-10-31T01:50:29;101461.34;;;17.57;69.95
64066;BME280;50318;54.760;9.408;2022-10-31T01:52:57;101466.69;;;17.60;70.00
64066;BME280;50318;54.760;9.408;2022-10-31T01:55:34;101468.97;;;17.62;70.17
64066;BME280;50318;54.760;9.408;2022-10-31T01:58:15;101467.25;;;17.64;69.86
64066;BME280;50318;54.760;9.408;2022-10-31T02:00:46;101472.81;;;17.64;69.58
64066;BME280;50318;54.760;9.408;2022-10-31T02:03:14;101477.59;;;17.64;68.69
64066;BME280;50318;54.760;9.408;2022-10-31T02:05:45;101477.78;;;17.60;68.88
64066;BME280;50318;54.760;9.408;2022-10-31T02:10:42;101485.25;;;17.54;68.95
64066;BME280;50318;54.760;9.408;2022-10-31T02:13:08;101470.91;;;17.41;68.84
64066;BME280;50318;54.760;9.408;2022-10-31T02:15:44;101477.97;;;17.42;68.44
64066;BME280;50318;54.760;9.408;2022-10-31T02:18:12;101492.34;;;17.40;68.30
64066;BME280;50318;54.760;9.408;2022-10-31T02:34:20;101504.72;;;17.01;68.54
64066;BME280;50318;54.760;9.408;2022-10-31T02:36:58;101499.53;;;16.94;68.27
64066;BME280;50318;54.760;9.408;2022-10-31T02:39:54;101509.28;;;16.89;68.66
64066;BME280;50318;54.760;9.408;2022-10-31T02:42:53;101501.34;;;16.82;68.85
64066;BME280;50318;54.760;9.408;2022-10-31T02:47:53;101506.94;;;16.73;68.75
64066;BME280;50318;54.760;9.408;2022-10-31T02:50:27;101504.22;;;16.64;68.73
64066;BME280;50318;54.760;9.408;2022-10-31T02:53:15;101500.56;;;16.57;68.93
64066;BME280;50318;54.760;9.408;2022-10-31T02:55:49;101516.88;;;16.55;69.15
64066;BME280;50318;54.760;9.408;2022-10-31T02:58:22;101509.69;;;16.49;68.82
64066;BME280;50318;54.760;9.408;2022-10-31T03:06:18;101513.47;;;16.37;68.88
64066;BME280;50318;54.760;9.408;2022-10-31T03:11:29;101517.97;;;16.25;68.87
64066;BME280;50318;54.760;9.408;2022-10-31T03:14:06;101527.81;;;16.26;69.19
64066;BME280;50318;54.760;9.408;2022-10-31T03:16:50;101522.44;;;16.22;69.30
64066;BME280;50318;54.760;9.408;2022-10-31T03:19:23;101524.94;;;16.20;69.08
64066;BME280;50318;54.760;9.408;2022-10-31T03:24:39;101531.56;;;16.14;69.03
64066;BME280;50318;54.760;9.408;2022-10-31T03:27:10;101528.22;;;16.10;68.71
64066;BME280;50318;54.760;9.408;2022-10-31T03:29:40;101527.13;;;16.07;69.08
64066;BME280;50318;54.760;9.408;2022-10-31T03:32:18;101536.06;;;16.02;69.10
64066;BME280;50318;54.760;9.408;2022-10-31T03:34:49;101539.78;;;15.99;68.86
64066;BME280;50318;54.760;9.408;2022-10-31T03:37:19;101545.78;;;15.98;68.82
64066;BME280;50318;54.760;9.408;2022-10-31T03:39:47;101540.88;;;15.92;68.83
64066;BME280;50318;54.760;9.408;2022-10-31T03:42:17;101528.94;;;15.77;69.30
64066;BME280;50318;54.760;9.408;2022-10-31T03:44:46;101550.28;;;15.86;69.05
64066;BME280;50318;54.760;9.408;2022-10-31T03:47:14;101551.38;;;15.79;69.22
64066;BME280;50318;54.760;9.408;2022-10-31T03:49:40;101552.91;;;15.80;69.45
64066;BME280;50318;54.760;9.408;2022-10-31T03:55:10;101565.19;;;15.79;69.16
64066;BME280;50318;54.760;9.408;2022-10-31T03:58:47;101565.19;;;15.79;69.14
64066;BME280;50318;54.760;9.408;2022-10-31T04:01:09;101574.13;;;15.74;69.10
64066;BME280;50318;54.760;9.408;2022-10-31T04:03:39;101571.34;;;15.74;69.20
64066;BME280;50318;54.760;9.408;2022-10-31T04:06:09;101578.28;;;15.70;68.97
64066;BME280;50318;54.760;9.408;2022-10-31T04:08:42;101581.06;;;15.70;68.89
64066;BME280;50318;54.760;9.408;2022-10-31T04:11:15;101587.06;;;15.68;69.27
64066;BME280;50318;54.760;9.408;2022-10-31T04:13:47;101582.44;;;15.65;68.90
64066;BME280;50318;54.760;9.408;2022-10-31T04:16:20;101586.91;;;15.62;68.67
64066;BME280;50318;54.760;9.408;2022-10-31T04:18:47;101581.19;;;15.57;69.15
64066;BME280;50318;54.760;9.408;2022-10-31T04:21:12;101562.63;;;15.48;68.87
64066;BME280;50318;54.760;9.408;2022-10-31T04:23:38;101576.59;;;15.54;68.81
64066;BME280;50318;54.760;9.408;2022-10-31T04:26:13;101579.22;;;15.48;68.51
64066;BME280;50318;54.760;9.408;2022-10-31T04:28:38;101578.59;;;15.44;68.67
64066;BME280;50318;54.760;9.408;2022-10-31T04:31:04;101587.66;;;15.45;69.14
64066;BME280;50318;54.760;9.408;2022-10-31T04:33:33;101595.19;;;15.44;68.91
64066;BME280;50318;54.760;9.408;2022-10-31T04:35:58;101593.19;;;15.45;69.69
64066;BME280;50318;54.760;9.408;2022-10-31T04:38:24;101601.31;;;15.48;70.27
64066;BME280;50318;54.760;9.408;2022-10-31T04:40:50;101601.94;;;15.52;70.20
64066;BME280;50318;54.760;9.408;2022-10-31T04:43:15;101601.47;;;15.54;69.95
64066;BME280;50318;54.760;9.408;2022-10-31T04:45:43;101593.94;;;15.54;69.98
64066;BME280;50318;54.760;9.408;2022-10-31T04:48:09;101601.31;;;15.57;69.77
64066;BME280;50318;54.760;9.408;2022-10-31T04:50:36;101596.25;;;15.56;68.76
64066;BME280;50318;54.760;9.408;2022-10-31T04:53:01;101596.88;;;15.51;68.46
64066;BME280;50318;54.760;9.408;2022-10-31T04:55:32;101589.81;;;15.41;68.34
64066;BME280;50318;54.760;9.408;2022-10-31T04:58:30;101595.94;;;15.35;68.64
64066;BME280;50318;54.760;9.408;2022-10-31T05:01:23;101582.13;;;15.26;69.25
64066;BME280;50318;54.760;9.408;2022-10-31T05:03:49;101590.72;;;15.28;69.29
64066;BME280;50318;54.760;9.408;2022-10-31T05:06:15;101584.91;;;15.26;69.30
64066;BME280;50318;54.760;9.408;2022-10-31T05:08:42;101576.78;;;15.23;68.99
64066;BME280;50318;54.760;9.408;2022-10-31T05:11:09;101589.06;;;15.22;69.29
64066;BME280;50318;54.760;9.408;2022-10-31T05:13:36;101577.22;;;15.12;68.90
64066;BME280;50318;54.760;9.408;2022-10-31T05:16:26;101587.81;;;15.14;69.44
64066;BME280;50318;54.760;9.408;2022-10-31T05:19:19;101593.78;;;15.12;69.42
64066;BME280;50318;54.760;9.408;2022-10-31T05:22:48;101598.69;;;15.08;69.53
64066;BME280;50318;54.760;9.408;2022-10-31T05:25:15;101598.41;;;15.06;69.48
64066;BME280;50318;54.760;9.408;2022-10-31T05:27:42;101602.09;;;15.03;69.93
64066;BME280;50318;54.760;9.408;2022-10-31T05:30:10;101616.81;;;15.00;70.62
64066;BME280;50318;54.760;9.408;2022-10-31T05:32:38;101607.44;;;14.97;70.11
64066;BME280;50318;54.760;9.408;2022-10-31T05:35:33;101610.69;;;14.96;71.19
64066;BME280;50318;54.760;9.408;2022-10-31T05:38:22;101613.44;;;14.96;71.10
64066;BME280;50318;54.760;9.408;2022-10-31T05:40:47;101605.75;;;15.00;71.21
64066;BME280;50318;54.760;9.408;2022-10-31T05:43:14;101604.06;;;15.02;71.01
64066;BME280;50318;54.760;9.408;2022-10-31T05:45:39;101607.44;;;15.07;70.80
64066;BME280;50318;54.760;9.408;2022-10-31T05:48:11;101608.06;;;15.11;71.99
64066;BME280;50318;54.760;9.408;2022-10-31T05:50:55;101610.69;;;15.14;71.74
64066;BME280;50318;54.760;9.408;2022-10-31T05:53:22;101615.00;;;15.15;70.92
64066;BME280;50318;54.760;9.408;2022-10-31T05:55:47;101616.84;;;15.18;71.32
64066;BME280;50318;54.760;9.408;2022-10-31T05:58:18;101623.44;;;15.21;71.36
64066;BME280;50318;54.760;9.408;2022-10-31T06:01:00;101616.69;;;15.22;71.19
64066;BME280;50318;54.760;9.408;2022-10-31T06:03:26;101617.16;;;15.20;70.88
64066;BME280;50318;54.760;9.408;2022-10-31T06:05:55;101614.09;;;15.18;70.80
64066;BME280;50318;54.760;9.408;2022-10-31T06:08:36;101624.84;;;15.16;70.67
64066;BME280;50318;54.760;9.408;2022-10-31T06:11:05;101622.19;;;15.13;70.04
64066;BME280;50318;54.760;9.408;2022-10-31T06:13:49;101617.13;;;15.11;70.39
64066;BME280;50318;54.760;9.408;2022-10-31T06:16:20;101623.72;;;15.04;70.63
64066;BME280;50318;54.760;9.408;2022-10-31T06:18:47;101624.94;;;15.03;70.42
64066;BME280;50318;54.760;9.408;2022-10-31T06:21:13;101636.16;;;15.00;70.38
64066;BME280;50318;54.760;9.408;2022-10-31T06:23:38;101638.91;;;15.00;70.43
64066;BME280;50318;54.760;9.408;2022-10-31T06:26:23;101642.91;;;14.99;70.68
64066;BME280;50318;54.760;9.408;2022-10-31T06:28:49;101638.59;;;14.98;70.42
64066;BME280;50318;54.760;9.408;2022-10-31T06:31:39;101645.81;;;15.04;71.55
64066;BME280;50318;54.760;9.408;2022-10-31T06:34:04;101634.78;;;14.95;71.13
64066;BME280;50318;54.760;9.408;2022-10-31T06:36:31;101646.44;;;15.09;71.37
64066;BME280;50318;54.760;9.408;2022-10-31T06:38:57;101654.28;;;15.10;71.58
64066;BME280;50318;54.760;9.408;2022-10-31T06:41:23;101657.69;;;15.14;71.47
64066;BME280;50318;54.760;9.408;2022-10-31T06:43:50;101665.38;;;15.19;71.74
64066;BME280;50318;54.760;9.408;2022-10-31T06:46:38;101669.97;;;15.22;71.02
64066;BME280;50318;54.760;9.408;2022-10-31T06:49:16;101666.28;;;15.25;71.02
64066;BME280;50318;54.760;9.408;2022-10-31T06:51:50;101667.34;;;15.28;71.27
64066;BME280;50318;54.760;9.408;2022-10-31T06:54:16;101665.97;;;15.32;71.25
64066;BME280;50318;54.760;9.408;2022-10-31T06:56:42;101672.13;;;15.36;70.85
64066;BME280;50318;54.760;9.408;2022-10-31T06:59:08;101667.50;;;15.33;70.87
64066;BME280;50318;54.760;9.408;2022-10-31T07:02:32;101670.47;;;15.39;70.56
64066;BME280;50318;54.760;9.408;2022-10-31T07:04:58;101668.78;;;15.42;70.81
64066;BME280;50318;54.760;9.408;2022-10-31T07:07:24;101676.44;;;15.47;70.67
64066;BME280;50318;54.760;9.408;2022-10-31T07:09:50;101670.44;;;15.48;71.40
64066;BME280;50318;54.760;9.408;2022-10-31T07:12:37;101678.75;;;15.57;71.81
64066;BME280;50318;54.760;9.408;2022-10-31T07:15:04;101678.47;;;15.64;71.44
64066;BME280;50318;54.760;9.408;2022-10-31T07:17:29;101683.22;;;15.73;71.35
64066;BME280;50318;54.760;9.408;2022-10-31T07:19:58;101686.91;;;15.79;70.71
64066;BME280;50318;54.760;9.408;2022-10-31T07:22:32;101684.75;;;15.83;70.48
64066;BME280;50318;54.760;9.408;2022-10-31T07:24:58;101691.81;;;15.84;70.54
64066;BME280;50318;54.760;9.408;2022-10-31T07:27:43;101700.28;;;15.90;70.46
64066;BME280;50318;54.760;9.408;2022-10-31T07:30:13;101704.44;;;15.94;70.94
64066;BME280;50318;54.760;9.408;2022-10-31T07:32:44;101694.44;;;15.97;70.95
64066;BME280;50318;54.760;9.408;2022-10-31T07:35:25;101697.03;;;16.01;70.20
64066;BME280;50318;54.760;9.408;2022-10-31T07:38:11;101703.19;;;16.05;70.29
64066;BME280;50318;54.760;9.408;2022-10-31T07:40:37;101701.00;;;16.09;71.14
64066;BME280;50318;54.760;9.408;2022-10-31T07:43:03;101704.72;;;16.15;70.92
64066;BME280;50318;54.760;9.408;2022-10-31T07:45:51;101712.34;;;16.29;71.43
64066;BME280;50318;54.760;9.408;2022-10-31T07:48:46;101705.75;;;16.36;70.97
64066;BME280;50318;54.760;9.408;2022-10-31T07:51:50;101710.94;;;16.43;71.08
64066;BME280;50318;54.760;9.408;2022-10-31T07:54:34;101712.31;;;16.56;70.81
64066;BME280;50318;54.760;9.408;2022-10-31T07:57:00;101711.66;;;16.62;70.68
64066;BME280;50318;54.760;9.408;2022-10-31T07:59:26;101703.94;;;16.66;71.56
64066;BME280;50318;54.760;9.408;2022-10-31T08:01:56;101705.00;;;16.77;71.09
64066;BME280;50318;54.760;9.408;2022-10-31T08:04:30;101703.75;;;16.78;70.47
64066;BME280;50318;54.760;9.408;2022-10-31T08:07:15;101711.94;;;16.82;70.31
64066;BME280;50318;54.760;9.408;2022-10-31T08:09:49;101709.94;;;16.82;70.30
64066;BME280;50318;54.760;9.408;2022-10-31T08:12:21;101715.00;;;16.84;70.56
64066;BME280;50318;54.760;9.408;2022-10-31T08:14:46;101720.53;;;16.84;70.68
64066;BME280;50318;54.760;9.408;2022-10-31T08:17:14;101724.38;;;16.86;70.51
64066;BME280;50318;54.760;9.408;2022-10-31T08:19:52;101729.44;;;16.88;70.63
64066;BME280;50318;54.760;9.408;2022-10-31T08:22:21;101729.75;;;16.90;70.31
64066;BME280;50318;54.760;9.408;2022-10-31T08:24:48;101732.22;;;16.88;69.64
64066;BME280;50318;54.760;9.408;2022-10-31T08:27:13;101735.94;;;16.85;69.99
64066;BME280;50318;54.760;9.408;2022-10-31T08:29:51;101727.16;;;16.86;70.22
64066;BME280;50318;54.760;9.408;2022-10-31T08:32:17;101728.22;;;16.89;70.21
64066;BME280;50318;54.760;9.408;2022-10-31T08:35:01;101725.13;;;16.87;69.74
64066;BME280;50318;54.760;9.408;2022-10-31T08:37:52;101730.38;;;16.85;69.41
64066;BME280;50318;54.760;9.408;2022-10-31T08:40:17;101729.94;;;16.77;69.72
64066;BME280;50318;54.760;9.408;2022-10-31T08:42:43;101714.41;;;16.80;70.05
64066;BME280;50318;54.760;9.408;2022-10-31T08:45:09;101710.97;;;16.85;70.31
64066;BME280;50318;54.760;9.408;2022-10-31T08:47:35;101718.94;;;16.92;70.06
64066;BME280;50318;54.760;9.408;2022-10-31T08:50:01;101717.84;;;16.99;70.31
64066;BME280;50318;54.760;9.408;2022-10-31T08:52:28;101713.66;;;17.03;70.54
64066;BME280;50318;54.760;9.408;2022-10-31T08:54:58;101720.88;;;17.10;70.53
64066;BME280;50318;54.760;9.408;2022-10-31T08:57:55;101723.28;;;17.17;70.29
64066;BME280;50318;54.760;9.408;2022-10-31T09:00:26;101720.97;;;17.15;70.19
64066;BME280;50318;54.760;9.408;2022-10-31T09:03:05;101723.09;;;17.21;70.50
64066;BME280;50318;54.760;9.408;2022-10-31T09:05:32;101710.47;;;17.19;70.39
64066;BME280;50318;54.760;9.408;2022-10-31T09:08:00;101708.19;;;17.18;70.44
64066;BME280;50318;54.760;9.408;2022-10-31T09:10:43;101708.16;;;17.27;70.68
64066;BME280;50318;54.760;9.408;2022-10-31T09:13:11;101706.44;;;17.30;70.76
64066;BME280;50318;54.760;9.408;2022-10-31T09:16:04;101718.03;;;17.43;70.85
64066;BME280;50318;54.760;9.408;2022-10-31T09:18:30;101712.78;;;17.45;70.40
64066;BME280;50318;54.760;9.408;2022-10-31T09:20:59;101719.22;;;17.51;70.36
64066;BME280;50318;54.760;9.408;2022-10-31T09:23:26;101724.13;;;17.56;70.92
64066;BME280;50318;54.760;9.408;2022-10-31T09:25:53;101716.47;;;17.66;71.00
64066;BME280;50318;54.760;9.408;2022-10-31T09:28:36;101716.91;;;17.73;70.14
64066;BME280;50318;54.760;9.408;2022-10-31T09:31:08;101705.16;;;17.78;69.64
64066;BME280;50318;54.760;9.408;2022-10-31T09:33:56;101710.03;;;17.84;69.66
64066;BME280;50318;54.760;9.408;2022-10-31T09:36:45;101703.06;;;17.88;69.66
64066;BME280;50318;54.760;9.408;2022-10-31T09:39:19;101705.94;;;17.94;69.78
64066;BME280;50318;54.760;9.408;2022-10-31T09:42:20;101710.84;;;17.99;69.85
64066;BME280;50318;54.760;9.408;2022-10-31T09:45:03;101701.38;;;18.05;69.75
64066;BME280;50318;54.760;9.408;2022-10-31T09:50:43;101699.81;;;18.19;70.02
64066;BME280;50318;54.760;9.408;2022-10-31T09:56:23;101698.59;;;18.35;69.62
64066;BME280;50318;54.760;9.408;2022-10-31T09:58:53;101700.19;;;18.41;69.68
64066;BME280;50318;54.760;9.408;2022-10-31T10:03:56;101709.56;;;18.59;70.08
64066;BME280;50318;54.760;9.408;2022-10-31T10:06:53;101704.22;;;18.70;69.72
64066;BME280;50318;54.760;9.408;2022-10-31T10:09:37;101708.41;;;18.80;69.79
64066;BME280;50318;54.760;9.408;2022-10-31T10:21:22;101713.69;;;19.13;69.00
64066;BME280;50318;54.760;9.408;2022-10-31T10:26:38;101710.16;;;19.33;70.01
64066;BME280;50318;54.760;9.408;2022-10-31T10:31:53;101710.97;;;19.39;70.08
64066;BME280;50318;54.760;9.408;2022-10-31T10:34:30;101706.75;;;19.44;69.65
64066;BME280;50318;54.760;9.408;2022-10-31T10:39:41;101703.47;;;19.45;69.41
64066;BME280;50318;54.760;9.408;2022-10-31T10:42:16;101696.28;;;19.39;69.27
64066;BME280;50318;54.760;9.408;2022-10-31T10:45:14;101704.59;;;19.33;69.23
64066;BME280;50318;54.760;9.408;2022-10-31T10:48:06;101700.75;;;19.30;69.32
64066;BME280;50318;54.760;9.408;2022-10-31T10:50:40;101694.44;;;19.30;69.89
64066;BME280;50318;54.760;9.408;2022-10-31T10:53:40;101699.28;;;19.35;69.39
64066;BME280;50318;54.760;9.408;2022-10-31T10:57:11;101694.28;;;19.39;69.74
64066;BME280;50318;54.760;9.408;2022-10-31T10:59:31;101688.25;;;19.41;69.33
64066;BME280;50318;54.760;9.408;2022-10-31T11:01:58;101699.66;;;19.43;69.26
64066;BME280;50318;54.760;9.408;2022-10-31T11:06:58;101698.19;;;19.47;68.93
64066;BME280;50318;54.760;9.408;2022-10-31T11:09:23;101701.25;;;19.49;68.81
64066;BME280;50318;54.760;9.408;2022-10-31T11:11:49;101694.16;;;19.48;68.33
64066;BME280;50318;54.760;9.408;2022-10-31T11:14:16;101696.66;;;19.46;68.21
64066;BME280;50318;54.760;9.408;2022-10-31T11:16:45;101691.38;;;19.48;68.92
64066;BME280;50318;54.760;9.408;2022-10-31T11:19:25;101688.38;;;19.52;68.31
64066;BME280;50318;54.760;9.408;2022-10-31T11:21:53;101685.13;;;19.53;68.32
64066;BME280;50318;54.760;9.408;2022-10-31T11:24:24;101687.13;;;19.53;67.72
64066;BME280;50318;54.760;9.408;2022-10-31T11:27:08;101683.50;;;19.47;67.77
64066;BME280;50318;54.760;9.408;2022-10-31T11:29:36;101695.47;;;19.53;68.19
64066;BME280;50318;54.760;9.408;2022-10-31T11:32:02;101698.25;;;19.53;68.11
64066;BME280;50318;54.760;9.408;2022-10-31T11:34:42;101696.81;;;19.57;68.18
64066;BME280;50318;54.760;9.408;2022-10-31T11:37:15;101700.41;;;19.63;68.23
64066;BME280;50318;54.760;9.408;2022-10-31T11:39:44;101691.03;;;19.61;67.28
64066;BME280;50318;54.760;9.408;2022-10-31T11:42:11;101703.13;;;19.58;66.70
64066;BME280;50318;54.760;9.408;2022-10-31T11:44:41;101694.50;;;19.56;65.90
64066;BME280;50318;54.760;9.408;2022-10-31T11:47:12;101699.50;;;19.52;65.85
64066;BME280;50318;54.760;9.408;2022-10-31T11:49:44;101694.91;;;19.49;66.09
64066;BME280;50318;54.760;9.408;2022-10-31T11:52:24;101686.84;;;19.51;65.90
64066;BME280;50318;54.760;9.408;2022-10-31T11:54:55;101697.09;;;19.59;66.33
64066;BME280;50318;54.760;9.408;2022-10-31T11:57:32;101709.06;;;19.66;65.60
64066;BME280;50318;54.760;9.408;2022-10-31T12:00:03;101705.03;;;19.67;65.84
64066;BME280;50318;54.760;9.408;2022-10-31T12:02:37;101713.94;;;19.71;65.96
64066;BME280;50318;54.760;9.408;2022-10-31T12:05:25;101701.97;;;19.65;66.01
64066;BME280;50318;54.760;9.408;2022-10-31T12:07:56;101710.88;;;19.69;65.82
64066;BME280;50318;54.760;9.408;2022-10-31T12:10:51;101705.22;;;19.63;66.03
64066;BME280;50318;54.760;9.408;2022-10-31T12:13:33;101710.50;;;19.61;65.78
64066;BME280;50318;54.760;9.408;2022-10-31T12:16:25;101710.44;;;19.55;66.04
64066;BME280;50318;54.760;9.408;2022-10-31T12:19:03;101698.19;;;19.47;65.84
64066;BME280;50318;54.760;9.408;2022-10-31T12:24:11;101686.91;;;19.36;65.54
64066;BME280;50318;54.760;9.408;2022-10-31T12:29:16;101676.00;;;19.32;65.75
64066;BME280;50318;54.760;9.408;2022-10-31T12:34:43;101680.75;;;19.26;65.67
64066;BME280;50318;54.760;9.408;2022-10-31T12:56:50;101667.53;;;19.42;66.18
64066;BME280;50318;54.760;9.408;2022-10-31T13:01:47;101673.38;;;19.44;65.85
64066;BME280;50318;54.760;9.408;2022-10-31T13:07:06;101656.50;;;19.53;66.33
64066;BME280;50318;54.760;9.408;2022-10-31T13:10:46;101651.03;;;19.58;65.93
64066;BME280;50318;54.760;9.408;2022-10-31T13:12:36;101642.94;;;19.60;65.39
64066;BME280;50318;54.760;9.408;2022-10-31T13:15:14;101637.88;;;19.59;65.41
64066;BME280;50318;54.760;9.408;2022-10-31T13:17:45;101637.59;;;19.57;64.38
64066;BME280;50318;54.760;9.408;2022-10-31T13:20:18;101635.22;;;19.50;64.52
64066;BME280;50318;54.760;9.408;2022-10-31T13:22:48;101627.03;;;19.41;64.13
64066;BME280;50318;54.760;9.408;2022-10-31T13:25:18;101621.41;;;19.35;64.56
64066;BME280;50318;54.760;9.408;2022-10-31T13:30:24;101626.34;;;19.25;64.74
64066;BME280;50318;54.760;9.408;2022-10-31T13:38:53;101615.09;;;19.14;64.82
64066;BME280;50318;54.760;9.408;2022-10-31T13:44:22;101610.72;;;19.08;64.98
64066;BME280;50318;54.760;9.408;2022-10-31T13:46:50;101603.06;;;19.02;65.17
64066;BME280;50318;54.760;9.408;2022-10-31T13:54:38;101593.47;;;18.83;65.71
64066;BME280;50318;54.760;9.408;2022-10-31T14:00:31;101584.16;;;18.66;65.86
64066;BME280;50318;54.760;9.408;2022-10-31T14:02:56;101574.66;;;18.58;66.36
64066;BME280;50318;54.760;9.408;2022-10-31T14:05:32;101583.28;;;18.60;66.67
64066;BME280;50318;54.760;9.408;2022-10-31T14:08:01;101583.00;;;18.58;66.76
64066;BME280;50318;54.760;9.408;2022-10-31T14:15:40;101581.13;;;18.49;67.43
64066;BME280;50318;54.760;9.408;2022-10-31T14:18:21;101576.63;;;18.52;67.70
64066;BME280;50318;54.760;9.408;2022-10-31T14:20:48;101574.59;;;18.52;67.62
64066;BME280;50318;54.760;9.408;2022-10-31T14:29:02;101571.06;;;18.52;67.98
64066;BME280;50318;54.760;9.408;2022-10-31T14:34:51;101557.09;;;18.46;67.55
64066;BME280;50318;54.760;9.408;2022-10-31T14:46:01;101567.44;;;18.46;67.63
64066;BME280;50318;54.760;9.408;2022-10-31T14:51:16;101558.63;;;18.47;67.96
64066;BME280;50318;54.760;9.408;2022-10-31T14:53:48;101549.22;;;18.45;67.98
64066;BME280;50318;54.760;9.408;2022-10-31T14:56:20;101558.91;;;18.49;67.75
64066;BME280;50318;54.760;9.408;2022-10-31T14:58:49;101551.25;;;18.44;67.55
64066;BME280;50318;54.760;9.408;2022-10-31T15:01:21;101548.94;;;18.42;67.36
64066;BME280;50318;54.760;9.408;2022-10-31T15:03:50;101537.69;;;18.31;67.13
64066;BME280;50318;54.760;9.408;2022-10-31T15:06:21;101551.03;;;18.27;67.06
64066;BME280;50318;54.760;9.408;2022-10-31T15:08:53;101543.84;;;18.21;67.30
64066;BME280;50318;54.760;9.408;2022-10-31T15:11:20;101544.25;;;18.14;67.13
64066;BME280;50318;54.760;9.408;2022-10-31T15:16:42;101538.13;;;17.95;67.28
64066;BME280;50318;54.760;9.408;2022-10-31T15:19:15;101528.97;;;17.89;67.57
64066;BME280;50318;54.760;9.408;2022-10-31T15:21:44;101522.38;;;17.86;67.28
64066;BME280;50318;54.760;9.408;2022-10-31T15:24:13;101519.78;;;17.83;67.54
64066;BME280;50318;54.760;9.408;2022-10-31T15:26:45;101511.88;;;17.75;67.50
64066;BME280;50318;54.760;9.408;2022-10-31T15:29:14;101505.16;;;17.67;67.63
64066;BME280;50318;54.760;9.408;2022-10-31T15:32:01;101513.16;;;17.65;67.67
64066;BME280;50318;54.760;9.408;2022-10-31T15:34:41;101508.03;;;17.58;67.92
64066;BME280;50318;54.760;9.408;2022-10-31T15:37:18;101502.06;;;17.50;67.84
64066;BME280;50318;54.760;9.408;2022-10-31T15:39:45;101501.97;;;17.45;67.73
64066;BME280;50318;54.760;9.408;2022-10-31T15:42:28;101511.47;;;17.38;67.98
64066;BME280;50318;54.760;9.408;2022-10-31T15:45:00;101514.63;;;17.31;67.92